createdAt,value
2018-12-06T00:03:35.793Z,0.10
2018-12-06T00:08:02.223Z,0.20
2018-12-06T00:12:07.305Z,0.20
2018-12-06T00:16:15.218Z,0.10
2018-12-06T00:20:22.359Z,0.10
2018-12-06T00:24:27.752Z,0.10
2018-12-06T00:28:33.130Z,0.00
2018-12-06T00:32:42.077Z,-0.10
2018-12-06T00:36:47.446Z,-0.10
2018-12-06T00:40:52.678Z,-0.20
2018-12-06T00:45:02.579Z,-0.20
2018-12-06T00:49:09.578Z,-0.20
2018-12-06T00:53:14.767Z,-0.20
2018-12-06T00:57:27.184Z,-0.30
2018-12-06T01:01:32.939Z,-0.50
2018-12-06T01:05:42.829Z,-0.40
2018-12-06T01:09:49.517Z,-0.20
2018-12-06T01:13:55.471Z,-0.30
2018-12-06T01:18:02.408Z,-0.30
2018-12-06T01:22:08.018Z,-0.40
2018-12-06T01:26:13.186Z,-0.50
2018-12-06T01:30:21.721Z,-0.30
2018-12-06T01:34:27.752Z,-0.40
2018-12-06T01:38:37.796Z,-0.30
2018-12-06T01:42:42.824Z,-0.40
2018-12-06T01:46:48.890Z,-0.40
2018-12-06T01:50:56.949Z,-0.40
2018-12-06T01:55:02.406Z,-0.30
2018-12-06T01:59:07.508Z,-0.30
2018-12-06T02:03:15.972Z,-0.20
2018-12-06T02:07:21.056Z,-0.10
2018-12-06T02:11:26.250Z,-0.20
2018-12-06T02:15:31.389Z,-0.20
2018-12-06T02:19:36.264Z,0.00
2018-12-06T02:23:41.375Z,0.10
2018-12-06T02:27:47.669Z,0.20
2018-12-06T02:31:52.597Z,0.30
2018-12-06T02:36:01.454Z,0.30
2018-12-06T02:40:07.309Z,0.30
2018-12-06T02:44:13.692Z,0.30
2018-12-06T02:48:22.228Z,0.20
2018-12-06T02:52:27.302Z,0.40
2018-12-06T02:56:33.275Z,0.40
2018-12-06T03:00:45.272Z,0.30
2018-12-06T03:04:52.245Z,0.30
2018-12-06T03:08:57.256Z,0.40
2018-12-06T03:17:10.966Z,0.60
2018-12-06T03:21:16.821Z,0.60
2018-12-06T03:25:21.875Z,0.50
2018-12-06T03:29:27.092Z,0.30
2018-12-06T03:33:32.068Z,0.10
2018-12-06T03:37:37.640Z,0.20
2018-12-06T03:41:46.848Z,0.20
2018-12-06T03:45:52.440Z,0.30
2018-12-06T03:49:58.787Z,0.40
2018-12-06T03:54:04.212Z,0.30
2018-12-06T03:58:10.016Z,0.40
2018-12-06T04:02:18.059Z,0.40
2018-12-06T04:06:23.204Z,0.70
2018-12-06T04:10:29.704Z,0.60
2018-12-06T04:14:39.163Z,0.40
2018-12-06T04:18:44.253Z,0.60
2018-12-06T04:22:51.324Z,0.60
2018-12-06T04:26:58.582Z,0.50
2018-12-06T04:31:05.526Z,0.50
2018-12-06T04:39:20.611Z,0.90
2018-12-06T04:43:26.076Z,0.80
2018-12-06T04:47:36.093Z,0.80
2018-12-06T04:51:42.456Z,0.80
2018-12-06T04:55:47.548Z,0.80
2018-12-06T04:59:53.271Z,0.80
2018-12-06T05:04:02.061Z,0.90
2018-12-06T05:08:07.822Z,0.90
2018-12-06T05:12:12.981Z,0.90
2018-12-06T05:16:25.551Z,0.70
2018-12-06T05:20:31.438Z,0.50
2018-12-06T05:28:49.824Z,0.30
2018-12-06T05:32:55.024Z,0.40
2018-12-06T05:37:09.589Z,0.40
2018-12-06T05:41:17.983Z,0.30
2018-12-06T05:45:23.447Z,0.20
2018-12-06T05:49:28.516Z,0.00
2018-12-06T05:53:43.484Z,-0.10
2018-12-06T05:57:49.377Z,-0.10
2018-12-06T06:01:59.089Z,-0.30
2018-12-06T06:06:04.436Z,-0.20
2018-12-06T06:10:09.596Z,-0.10
2018-12-06T06:14:22.222Z,-0.10
2018-12-06T06:18:27.558Z,0.00
2018-12-06T06:26:42.248Z,-0.20
2018-12-06T06:30:47.501Z,-0.40
2018-12-06T06:34:56.811Z,-0.50
2018-12-06T06:39:02.630Z,-0.50
2018-12-06T06:43:09.797Z,-0.40
2018-12-06T06:47:15.135Z,-0.60
2018-12-06T06:51:20.361Z,-0.60
2018-12-06T06:55:26.216Z,-0.90
2018-12-06T07:03:40.703Z,-0.60
2018-12-06T07:07:46.706Z,-0.60
2018-12-06T07:16:04.664Z,-0.30
2018-12-06T07:20:09.843Z,-0.10
2018-12-06T07:24:18.359Z,-0.10
2018-12-06T07:28:23.357Z,-0.10
2018-12-06T07:32:29.883Z,0.00
2018-12-06T07:36:38.198Z,0.30
2018-12-06T07:40:43.360Z,0.50
2018-12-06T07:44:48.524Z,0.70
2018-12-06T07:48:58.453Z,0.50
2018-12-06T07:53:03.641Z,0.50
2018-12-06T07:57:10.380Z,0.70
2018-12-06T08:01:18.120Z,0.60
2018-12-06T08:05:23.872Z,0.70
2018-12-06T08:09:28.911Z,0.80
2018-12-06T08:13:36.970Z,0.80
2018-12-06T08:17:46.272Z,0.90
2018-12-06T08:26:05.361Z,0.80
2018-12-06T08:30:10.791Z,0.70
2018-12-06T08:34:18.249Z,3.80
2018-12-06T08:38:23.727Z,0.70
2018-12-06T08:42:29.373Z,0.90
2018-12-06T08:46:39.100Z,0.90
2018-12-06T08:50:44.705Z,0.90
2018-12-06T08:54:51.238Z,1.00
2018-12-06T08:58:59.041Z,-1.50
2018-12-06T09:03:06.266Z,1.00
2018-12-06T09:11:21.020Z,1.40
2018-12-06T09:15:28.349Z,1.40
2018-12-06T09:19:40.271Z,1.40
2018-12-06T09:23:45.746Z,1.30
2018-12-06T09:27:51.060Z,1.20
2018-12-06T09:32:04.480Z,3.00
2018-12-06T09:36:09.891Z,1.40
2018-12-06T09:40:18.725Z,1.50
2018-12-06T09:44:24.711Z,1.50
2018-12-06T09:48:31.144Z,1.60
2018-12-06T09:52:38.566Z,1.50
2018-12-06T10:01:06.883Z,1.30
2018-12-06T10:05:13.156Z,1.30
2018-12-06T10:09:21.079Z,1.30
2018-12-06T10:13:27.767Z,1.50
2018-12-06T10:17:33.148Z,1.50
2018-12-06T10:21:41.152Z,1.50
2018-12-06T10:25:46.385Z,1.50
2018-12-06T10:29:52.032Z,1.80
2018-12-06T10:33:58.306Z,1.80
2018-12-06T10:38:04.982Z,1.90
2018-12-06T10:42:10.448Z,1.90
2018-12-06T10:46:19.680Z,1.90
2018-12-06T10:50:25.167Z,2.20
2018-12-06T10:54:31.376Z,2.40
2018-12-06T10:58:38.296Z,2.30
2018-12-06T11:02:49.603Z,2.30
2018-12-06T11:06:54.838Z,2.20
2018-12-06T11:11:01.549Z,2.20
2018-12-06T11:15:07.100Z,2.30
2018-12-06T11:19:12.528Z,2.30
2018-12-06T11:23:17.768Z,2.30
2018-12-06T11:27:23.728Z,2.40
2018-12-06T11:31:29.077Z,2.50
2018-12-06T11:35:34.495Z,2.50
2018-12-06T11:39:39.827Z,2.40
2018-12-06T11:43:46.391Z,2.50
2018-12-06T11:47:51.619Z,2.50
2018-12-06T11:51:56.924Z,2.40
2018-12-06T11:56:02.561Z,2.40
2018-12-06T12:00:12.554Z,2.20
2018-12-06T12:04:18.611Z,2.20
2018-12-06T12:08:24.091Z,2.40
2018-12-06T12:12:32.057Z,2.40
2018-12-06T12:16:40.239Z,2.30
2018-12-06T12:20:45.634Z,2.40
2018-12-06T12:24:50.922Z,2.40
2018-12-06T12:28:57.823Z,2.40
2018-12-06T12:33:03.455Z,2.50
2018-12-06T12:37:08.886Z,2.70
2018-12-06T12:41:14.366Z,2.70
2018-12-06T12:45:19.694Z,2.60
2018-12-06T12:49:34.194Z,2.50
2018-12-06T12:53:39.475Z,2.40
2018-12-06T12:57:46.171Z,2.30
2018-12-06T13:01:52.609Z,2.20
2018-12-06T13:06:00.052Z,2.00
2018-12-06T13:10:05.834Z,2.10
2018-12-06T13:14:14.602Z,2.00
2018-12-06T13:18:20.001Z,1.90
2018-12-06T13:22:26.341Z,1.70
2018-12-06T13:26:33.414Z,1.60
2018-12-06T13:30:38.960Z,2.00
2018-12-06T13:34:44.277Z,2.00
2018-12-06T13:38:51.029Z,2.00
2018-12-06T13:42:58.559Z,2.00
2018-12-06T13:47:04.031Z,2.00
2018-12-06T13:51:10.353Z,2.00
2018-12-06T13:55:20.646Z,1.90
2018-12-06T13:59:28.042Z,1.90
2018-12-06T14:03:33.388Z,1.80
2018-12-06T14:07:40.296Z,1.80
2018-12-06T14:11:47.052Z,1.70
2018-12-06T14:15:52.520Z,1.70
2018-12-06T14:20:01.710Z,1.50
2018-12-06T14:24:07.218Z,1.50
2018-12-06T14:28:17.033Z,1.50
2018-12-06T14:32:22.284Z,1.40
2018-12-06T14:40:40.570Z,1.30
2018-12-06T14:44:47.194Z,1.30
2018-12-06T14:48:52.504Z,1.30
2018-12-06T14:52:57.975Z,1.30
2018-12-06T14:57:04.453Z,1.20
2018-12-06T15:01:11.224Z,1.10
2018-12-06T15:05:18.023Z,0.90
2018-12-06T15:09:23.984Z,0.90
2018-12-06T15:13:30.065Z,1.10
2018-12-06T15:17:36.031Z,1.10
2018-12-06T15:21:42.394Z,1.00
2018-12-06T15:25:48.007Z,0.90
2018-12-06T15:29:54.428Z,0.90
2018-12-06T15:34:00.904Z,1.00
2018-12-06T15:38:05.958Z,1.00
2018-12-06T15:42:11.276Z,1.10
2018-12-06T15:46:16.987Z,1.10
2018-12-06T15:50:22.520Z,1.00
2018-12-06T15:54:27.565Z,1.00
2018-12-06T15:58:33.014Z,1.00
2018-12-06T16:02:38.921Z,1.10
2018-12-06T16:06:46.252Z,1.10
2018-12-06T16:10:52.045Z,1.00
2018-12-06T16:14:57.600Z,1.00
2018-12-06T16:19:02.975Z,1.00
2018-12-06T16:23:08.988Z,1.00
2018-12-06T16:27:15.095Z,1.00
2018-12-06T16:31:23.717Z,1.10
2018-12-06T16:35:28.736Z,1.00
2018-12-06T16:39:34.798Z,0.90
2018-12-06T16:43:41.633Z,1.10
2018-12-06T16:47:48.117Z,1.10
2018-12-06T16:51:54.040Z,1.00
2018-12-06T16:56:00.733Z,1.10
2018-12-06T17:00:09.437Z,1.00
2018-12-06T17:04:16.591Z,0.90
2018-12-06T17:08:21.753Z,0.80
2018-12-06T17:12:28.503Z,0.90
2018-12-06T17:16:34.729Z,0.90
2018-12-06T17:20:41.965Z,0.90
2018-12-06T17:24:47.078Z,1.00
2018-12-06T17:28:53.914Z,1.00
2018-12-06T17:33:34.113Z,0.90
2018-12-06T17:37:42.679Z,1.10
2018-12-06T17:41:51.750Z,1.10
2018-12-06T17:46:02.868Z,1.30
2018-12-06T17:50:08.613Z,1.30
2018-12-06T17:54:14.335Z,1.10
2018-12-06T17:58:20.138Z,1.20
2018-12-06T18:02:28.350Z,1.10
2018-12-06T18:06:35.196Z,1.20
2018-12-06T18:10:45.139Z,1.20
2018-12-06T18:14:51.570Z,1.20
2018-12-06T18:18:57.827Z,1.20
2018-12-06T18:23:13.075Z,1.10
2018-12-06T18:27:18.593Z,1.10
2018-12-06T18:31:28.097Z,1.10
2018-12-06T18:35:35.006Z,1.10
2018-12-06T18:39:42.021Z,1.10
2018-12-06T18:43:57.100Z,1.00
2018-12-06T18:48:07.018Z,1.00
2018-12-06T18:52:15.312Z,1.10
2018-12-06T19:00:35.671Z,1.20
2018-12-06T19:04:41.346Z,1.20
2018-12-06T19:08:56.873Z,1.10
2018-12-06T19:17:15.895Z,1.10
2018-12-06T19:25:33.835Z,1.20
2018-12-06T19:29:40.322Z,1.30
2018-12-06T19:33:52.781Z,1.40
2018-12-06T19:37:59.802Z,1.30
2018-12-06T19:42:06.994Z,1.20
2018-12-06T19:50:21.266Z,1.30
2018-12-06T19:54:27.623Z,1.40
2018-12-06T19:58:33.921Z,1.30
2018-12-06T20:02:43.011Z,1.20
2018-12-06T20:06:48.979Z,3.70
2018-12-06T20:10:56.638Z,1.20
2018-12-06T20:15:02.151Z,1.30
2018-12-06T20:19:10.998Z,1.20
2018-12-06T20:23:17.309Z,1.20
2018-12-06T20:27:23.498Z,1.10
2018-12-06T20:33:07.337Z,1.00
2018-12-06T20:41:20.790Z,0.90
2018-12-06T20:45:25.901Z,0.90
2018-12-06T20:49:31.151Z,1.10
2018-12-06T20:53:43.220Z,1.20
2018-12-06T20:57:48.387Z,1.20
2018-12-06T21:01:57.877Z,1.20
2018-12-06T21:06:04.138Z,1.20
2018-12-06T21:10:09.283Z,1.10
2018-12-06T21:14:22.113Z,1.20
2018-12-06T21:18:25.830Z,1.10
2018-12-06T21:22:40.504Z,1.30
2018-12-06T21:26:45.606Z,1.30
2018-12-06T21:30:50.864Z,1.30
2018-12-06T21:35:03.935Z,1.40
2018-12-06T21:39:10.530Z,1.20
2018-12-06T21:43:23.105Z,1.10
2018-12-06T21:47:28.770Z,1.10
2018-12-06T21:51:37.850Z,1.30
2018-12-06T21:55:44.063Z,1.20
2018-12-06T21:59:49.785Z,1.20
2018-12-06T22:03:54.821Z,1.10
2018-12-06T22:08:04.460Z,1.00
2018-12-06T22:12:11.667Z,1.00
2018-12-06T22:20:26.253Z,1.00
2018-12-06T22:24:33.107Z,1.20
2018-12-06T22:28:39.023Z,1.20
2018-12-06T22:32:44.371Z,1.20
2018-12-06T22:36:49.656Z,1.10
2018-12-06T22:40:56.375Z,1.00
2018-12-06T22:46:07.840Z,1.10
2018-12-06T22:50:13.142Z,1.10
2018-12-06T22:54:18.614Z,1.20
2018-12-06T22:58:23.992Z,1.20
2018-12-06T23:02:33.533Z,1.20
2018-12-06T23:06:39.894Z,1.10
2018-12-06T23:10:45.399Z,1.20
2018-12-06T23:14:54.204Z,1.10
2018-12-06T23:19:00.164Z,1.10
2018-12-06T23:23:05.831Z,1.10
2018-12-06T23:27:15.325Z,1.10
2018-12-06T23:31:21.917Z,1.10
2018-12-06T23:35:31.540Z,1.20
2018-12-06T23:39:36.566Z,1.20
2018-12-06T23:43:41.821Z,1.20
2018-12-06T23:51:57.164Z,1.30
2018-12-06T23:56:02.434Z,1.20
